sensor_id;sensor_type;location;lat;lon;timestamp;P1;durP1;ratioP1;P2;durP2;ratioP2
9559;SDS011;4818;50.860;4.648;2023-08-31T00:02:22;2.40;;;0.50;;
9559;SDS011;4818;50.860;4.648;2023-08-31T00:04:51;2.20;;;0.30;;
9559;SDS011;4818;50.860;4.648;2023-08-31T00:07:18;1.40;;;0.30;;
9559;SDS011;4818;50.860;4.648;2023-08-31T00:09:44;1.13;;;0.30;;
9559;SDS011;4818;50.860;4.648;2023-08-31T00:12:11;2.60;;;0.32;;
9559;SDS011;4818;50.860;4.648;2023-08-31T00:14:37;1.85;;;0.50;;
9559;SDS011;4818;50.860;4.648;2023-08-31T00:17:03;2.35;;;0.40;;
9559;SDS011;4818;50.860;4.648;2023-08-31T00:19:30;2.72;;;0.60;;
9559;SDS011;4818;50.860;4.648;2023-08-31T00:21:56;3.72;;;0.30;;
9559;SDS011;4818;50.860;4.648;2023-08-31T00:24:22;0.77;;;0.40;;
9559;SDS011;4818;50.860;4.648;2023-08-31T00:26:53;2.90;;;0.52;;
9559;SDS011;4818;50.860;4.648;2023-08-31T00:29:20;2.85;;;0.68;;
9559;SDS011;4818;50.860;4.648;2023-08-31T00:31:46;1.80;;;0.70;;
9559;SDS011;4818;50.860;4.648;2023-08-31T00:34:13;1.30;;;0.40;;
9559;SDS011;4818;50.860;4.648;2023-08-31T00:36:40;1.58;;;0.47;;
9559;SDS011;4818;50.860;4.648;2023-08-31T00:39:06;3.08;;;0.60;;
9559;SDS011;4818;50.860;4.648;2023-08-31T00:41:35;2.00;;;1.25;;
9559;SDS011;4818;50.860;4.648;2023-08-31T00:44:01;1.00;;;0.40;;
9559;SDS011;4818;50.860;4.648;2023-08-31T00:46:29;3.28;;;0.52;;
9559;SDS011;4818;50.860;4.648;2023-08-31T00:48:56;2.15;;;0.40;;
9559;SDS011;4818;50.860;4.648;2023-08-31T00:51:23;1.98;;;0.55;;
9559;SDS011;4818;50.860;4.648;2023-08-31T00:53:52;2.15;;;0.50;;
9559;SDS011;4818;50.860;4.648;2023-08-31T00:56:19;1.90;;;0.50;;
9559;SDS011;4818;50.860;4.648;2023-08-31T00:58:46;2.85;;;0.63;;
9559;SDS011;4818;50.860;4.648;2023-08-31T01:01:21;1.85;;;0.50;;
9559;SDS011;4818;50.860;4.648;2023-08-31T01:09:20;1.67;;;0.77;;
9559;SDS011;4818;50.860;4.648;2023-08-31T01:12:12;2.40;;;0.68;;
9559;SDS011;4818;50.860;4.648;2023-08-31T01:14:44;3.00;;;0.88;;
9559;SDS011;4818;50.860;4.648;2023-08-31T01:17:12;1.42;;;0.55;;
9559;SDS011;4818;50.860;4.648;2023-08-31T01:19:51;2.88;;;0.50;;
9559;SDS011;4818;50.860;4.648;2023-08-31T01:24:53;3.20;;;0.52;;
9559;SDS011;4818;50.860;4.648;2023-08-31T01:27:20;3.17;;;0.55;;
9559;SDS011;4818;50.860;4.648;2023-08-31T01:29:46;4.10;;;0.80;;
9559;SDS011;4818;50.860;4.648;2023-08-31T01:32:12;1.10;;;0.60;;
9559;SDS011;4818;50.860;4.648;2023-08-31T01:34:38;1.33;;;0.60;;
9559;SDS011;4818;50.860;4.648;2023-08-31T01:37:08;1.70;;;0.65;;
9559;SDS011;4818;50.860;4.648;2023-08-31T01:39:46;2.28;;;0.80;;
9559;SDS011;4818;50.860;4.648;2023-08-31T01:42:15;2.78;;;0.50;;
9559;SDS011;4818;50.860;4.648;2023-08-31T01:44:42;3.60;;;1.15;;
9559;SDS011;4818;50.860;4.648;2023-08-31T01:47:09;3.30;;;0.85;;
9559;SDS011;4818;50.860;4.648;2023-08-31T01:49:36;2.00;;;0.80;;
9559;SDS011;4818;50.860;4.648;2023-08-31T01:52:03;1.42;;;0.68;;
9559;SDS011;4818;50.860;4.648;2023-08-31T01:54:29;2.55;;;0.70;;
9559;SDS011;4818;50.860;4.648;2023-08-31T01:56:56;4.60;;;0.70;;
9559;SDS011;4818;50.860;4.648;2023-08-31T01:59:22;1.42;;;0.77;;
9559;SDS011;4818;50.860;4.648;2023-08-31T02:01:48;3.20;;;0.93;;
9559;SDS011;4818;50.860;4.648;2023-08-31T02:04:15;2.97;;;1.02;;
9559;SDS011;4818;50.860;4.648;2023-08-31T02:06:42;2.15;;;0.80;;
9559;SDS011;4818;50.860;4.648;2023-08-31T02:09:08;4.15;;;1.10;;
9559;SDS011;4818;50.860;4.648;2023-08-31T02:11:34;1.63;;;0.90;;
9559;SDS011;4818;50.860;4.648;2023-08-31T02:14:03;3.00;;;1.00;;
9559;SDS011;4818;50.860;4.648;2023-08-31T02:16:30;2.78;;;1.00;;
9559;SDS011;4818;50.860;4.648;2023-08-31T02:18:56;1.98;;;1.17;;
9559;SDS011;4818;50.860;4.648;2023-08-31T02:21:22;2.38;;;0.88;;
9559;SDS011;4818;50.860;4.648;2023-08-31T02:23:48;4.90;;;0.90;;
9559;SDS011;4818;50.860;4.648;2023-08-31T02:26:15;3.15;;;1.05;;
9559;SDS011;4818;50.860;4.648;2023-08-31T02:28:41;1.85;;;1.10;;
9559;SDS011;4818;50.860;4.648;2023-08-31T02:31:09;2.38;;;1.05;;
9559;SDS011;4818;50.860;4.648;2023-08-31T02:33:38;2.10;;;1.20;;
9559;SDS011;4818;50.860;4.648;2023-08-31T02:36:05;4.95;;;1.27;;
9559;SDS011;4818;50.860;4.648;2023-08-31T02:38:31;3.78;;;1.30;;
9559;SDS011;4818;50.860;4.648;2023-08-31T02:40:57;3.63;;;1.65;;
9559;SDS011;4818;50.860;4.648;2023-08-31T02:43:23;5.70;;;1.55;;
9559;SDS011;4818;50.860;4.648;2023-08-31T02:45:58;3.65;;;1.77;;
9559;SDS011;4818;50.860;4.648;2023-08-31T02:48:24;3.10;;;1.23;;
9559;SDS011;4818;50.860;4.648;2023-08-31T02:50:50;8.85;;;3.30;;
9559;SDS011;4818;50.860;4.648;2023-08-31T02:53:16;7.13;;;1.48;;
9559;SDS011;4818;50.860;4.648;2023-08-31T02:55:43;4.15;;;1.27;;
9559;SDS011;4818;50.860;4.648;2023-08-31T02:58:09;4.28;;;1.70;;
9559;SDS011;4818;50.860;4.648;2023-08-31T03:00:35;8.52;;;1.98;;
9559;SDS011;4818;50.860;4.648;2023-08-31T03:03:04;5.43;;;1.67;;
9559;SDS011;4818;50.860;4.648;2023-08-31T03:05:30;4.80;;;1.65;;
9559;SDS011;4818;50.860;4.648;2023-08-31T03:07:56;3.05;;;1.75;;
9559;SDS011;4818;50.860;4.648;2023-08-31T03:10:23;8.00;;;2.85;;
9559;SDS011;4818;50.860;4.648;2023-08-31T03:12:49;11.63;;;2.90;;
9559;SDS011;4818;50.860;4.648;2023-08-31T03:15:15;3.75;;;2.22;;
9559;SDS011;4818;50.860;4.648;2023-08-31T03:17:41;5.72;;;1.92;;
9559;SDS011;4818;50.860;4.648;2023-08-31T03:20:07;4.50;;;2.03;;
9559;SDS011;4818;50.860;4.648;2023-08-31T03:22:34;2.35;;;1.30;;
9559;SDS011;4818;50.860;4.648;2023-08-31T03:25:01;5.10;;;2.10;;
9559;SDS011;4818;50.860;4.648;2023-08-31T03:27:27;6.72;;;2.13;;
9559;SDS011;4818;50.860;4.648;2023-08-31T03:29:53;9.38;;;2.60;;
9559;SDS011;4818;50.860;4.648;2023-08-31T03:32:19;5.80;;;2.08;;
9559;SDS011;4818;50.860;4.648;2023-08-31T03:34:45;6.90;;;2.00;;
9559;SDS011;4818;50.860;4.648;2023-08-31T03:37:11;6.05;;;2.50;;
9559;SDS011;4818;50.860;4.648;2023-08-31T03:39:37;12.02;;;2.72;;
9559;SDS011;4818;50.860;4.648;2023-08-31T03:42:06;5.97;;;2.47;;
9559;SDS011;4818;50.860;4.648;2023-08-31T03:44:32;6.47;;;2.42;;
9559;SDS011;4818;50.860;4.648;2023-08-31T03:46:58;7.30;;;2.58;;
9559;SDS011;4818;50.860;4.648;2023-08-31T03:49:24;2.45;;;2.10;;
9559;SDS011;4818;50.860;4.648;2023-08-31T03:51:50;6.28;;;2.72;;
9559;SDS011;4818;50.860;4.648;2023-08-31T03:54:18;5.38;;;2.40;;
9559;SDS011;4818;50.860;4.648;2023-08-31T03:56:44;6.95;;;3.53;;
9559;SDS011;4818;50.860;4.648;2023-08-31T03:59:10;5.53;;;2.85;;
9559;SDS011;4818;50.860;4.648;2023-08-31T04:01:37;6.45;;;2.13;;
9559;SDS011;4818;50.860;4.648;2023-08-31T04:04:03;4.53;;;2.60;;
9559;SDS011;4818;50.860;4.648;2023-08-31T04:06:29;3.70;;;1.95;;
9559;SDS011;4818;50.860;4.648;2023-08-31T04:08:55;7.68;;;2.53;;
9559;SDS011;4818;50.860;4.648;2023-08-31T04:11:22;8.38;;;2.90;;
9559;SDS011;4818;50.860;4.648;2023-08-31T04:13:48;4.25;;;2.28;;
9559;SDS011;4818;50.860;4.648;2023-08-31T04:16:14;7.20;;;2.33;;
9559;SDS011;4818;50.860;4.648;2023-08-31T04:18:40;5.45;;;2.00;;
9559;SDS011;4818;50.860;4.648;2023-08-31T04:21:06;5.72;;;2.03;;
9559;SDS011;4818;50.860;4.648;2023-08-31T04:23:32;2.20;;;1.50;;
9559;SDS011;4818;50.860;4.648;2023-08-31T04:25:58;6.03;;;2.03;;
9559;SDS011;4818;50.860;4.648;2023-08-31T04:28:24;2.85;;;1.58;;
9559;SDS011;4818;50.860;4.648;2023-08-31T04:30:51;6.32;;;1.40;;
9559;SDS011;4818;50.860;4.648;2023-08-31T04:33:17;1.77;;;1.13;;
9559;SDS011;4818;50.860;4.648;2023-08-31T04:35:43;4.15;;;2.03;;
9559;SDS011;4818;50.860;4.648;2023-08-31T04:38:10;3.58;;;1.42;;
9559;SDS011;4818;50.860;4.648;2023-08-31T04:40:36;3.42;;;1.45;;
9559;SDS011;4818;50.860;4.648;2023-08-31T04:43:03;7.53;;;1.80;;
9559;SDS011;4818;50.860;4.648;2023-08-31T04:45:29;2.33;;;1.25;;
9559;SDS011;4818;50.860;4.648;2023-08-31T04:47:55;3.95;;;1.85;;
9559;SDS011;4818;50.860;4.648;2023-08-31T04:50:21;3.78;;;2.28;;
9559;SDS011;4818;50.860;4.648;2023-08-31T04:52:48;3.83;;;2.55;;
9559;SDS011;4818;50.860;4.648;2023-08-31T04:55:14;2.95;;;1.30;;
9559;SDS011;4818;50.860;4.648;2023-08-31T04:57:40;3.63;;;1.70;;
9559;SDS011;4818;50.860;4.648;2023-08-31T05:00:06;5.60;;;1.55;;
9559;SDS011;4818;50.860;4.648;2023-08-31T05:02:36;4.82;;;1.35;;
9559;SDS011;4818;50.860;4.648;2023-08-31T05:05:03;6.05;;;1.13;;
9559;SDS011;4818;50.860;4.648;2023-08-31T05:07:30;9.98;;;1.70;;
9559;SDS011;4818;50.860;4.648;2023-08-31T05:09:56;4.00;;;1.50;;
9559;SDS011;4818;50.860;4.648;2023-08-31T05:12:22;4.28;;;1.50;;
9559;SDS011;4818;50.860;4.648;2023-08-31T05:14:48;3.50;;;1.70;;
9559;SDS011;4818;50.860;4.648;2023-08-31T05:17:14;3.35;;;1.40;;
9559;SDS011;4818;50.860;4.648;2023-08-31T05:19:41;7.03;;;1.73;;
9559;SDS011;4818;50.860;4.648;2023-08-31T05:22:07;4.95;;;1.33;;
9559;SDS011;4818;50.860;4.648;2023-08-31T05:24:33;13.07;;;2.15;;
9559;SDS011;4818;50.860;4.648;2023-08-31T05:26:59;2.67;;;1.60;;
9559;SDS011;4818;50.860;4.648;2023-08-31T05:29:25;4.85;;;1.75;;
9559;SDS011;4818;50.860;4.648;2023-08-31T05:31:51;5.57;;;1.88;;
9559;SDS011;4818;50.860;4.648;2023-08-31T05:34:20;3.72;;;2.17;;
9559;SDS011;4818;50.860;4.648;2023-08-31T05:36:47;9.25;;;2.08;;
9559;SDS011;4818;50.860;4.648;2023-08-31T05:39:14;4.82;;;2.25;;
9559;SDS011;4818;50.860;4.648;2023-08-31T05:41:41;6.57;;;1.30;;
9559;SDS011;4818;50.860;4.648;2023-08-31T05:44:08;2.60;;;1.67;;
9559;SDS011;4818;50.860;4.648;2023-08-31T05:46:34;7.47;;;2.25;;
9559;SDS011;4818;50.860;4.648;2023-08-31T05:49:00;6.93;;;1.65;;
9559;SDS011;4818;50.860;4.648;2023-08-31T05:51:26;4.72;;;1.98;;
9559;SDS011;4818;50.860;4.648;2023-08-31T05:53:52;5.55;;;2.05;;
9559;SDS011;4818;50.860;4.648;2023-08-31T05:56:21;4.07;;;1.90;;
9559;SDS011;4818;50.860;4.648;2023-08-31T05:58:47;6.50;;;1.90;;
9559;SDS011;4818;50.860;4.648;2023-08-31T06:01:15;4.85;;;1.60;;
9559;SDS011;4818;50.860;4.648;2023-08-31T06:03:42;7.38;;;1.98;;
9559;SDS011;4818;50.860;4.648;2023-08-31T06:06:08;5.38;;;2.17;;
9559;SDS011;4818;50.860;4.648;2023-08-31T06:08:34;5.68;;;1.90;;
9559;SDS011;4818;50.860;4.648;2023-08-31T06:11:00;4.95;;;1.80;;
9559;SDS011;4818;50.860;4.648;2023-08-31T06:13:26;2.08;;;1.05;;
9559;SDS011;4818;50.860;4.648;2023-08-31T06:15:52;8.60;;;1.60;;
9559;SDS011;4818;50.860;4.648;2023-08-31T06:18:20;5.28;;;1.30;;
9559;SDS011;4818;50.860;4.648;2023-08-31T06:20:48;3.30;;;1.13;;
9559;SDS011;4818;50.860;4.648;2023-08-31T06:23:14;5.22;;;1.77;;
9559;SDS011;4818;50.860;4.648;2023-08-31T06:25:41;5.18;;;0.68;;
9559;SDS011;4818;50.860;4.648;2023-08-31T06:28:07;3.33;;;1.63;;
9559;SDS011;4818;50.860;4.648;2023-08-31T06:30:36;4.80;;;0.90;;
9559;SDS011;4818;50.860;4.648;2023-08-31T06:33:02;3.60;;;1.05;;
9559;SDS011;4818;50.860;4.648;2023-08-31T06:35:28;5.20;;;0.88;;
9559;SDS011;4818;50.860;4.648;2023-08-31T06:37:54;3.42;;;0.73;;
9559;SDS011;4818;50.860;4.648;2023-08-31T06:40:21;2.72;;;0.63;;
9559;SDS011;4818;50.860;4.648;2023-08-31T06:42:47;4.15;;;0.65;;
9559;SDS011;4818;50.860;4.648;2023-08-31T06:45:13;4.88;;;0.68;;
9559;SDS011;4818;50.860;4.648;2023-08-31T06:47:39;4.50;;;1.55;;
9559;SDS011;4818;50.860;4.648;2023-08-31T06:50:05;5.80;;;0.70;;
9559;SDS011;4818;50.860;4.648;2023-08-31T06:52:31;8.13;;;0.80;;
9559;SDS011;4818;50.860;4.648;2023-08-31T06:54:59;7.80;;;1.10;;
9559;SDS011;4818;50.860;4.648;2023-08-31T06:57:25;6.75;;;1.50;;
9559;SDS011;4818;50.860;4.648;2023-08-31T06:59:52;4.07;;;0.80;;
9559;SDS011;4818;50.860;4.648;2023-08-31T07:02:18;6.10;;;0.85;;
9559;SDS011;4818;50.860;4.648;2023-08-31T07:04:45;4.80;;;0.95;;
9559;SDS011;4818;50.860;4.648;2023-08-31T07:07:11;3.97;;;0.50;;
9559;SDS011;4818;50.860;4.648;2023-08-31T07:09:39;4.72;;;0.98;;
9559;SDS011;4818;50.860;4.648;2023-08-31T07:12:05;7.35;;;0.90;;
9559;SDS011;4818;50.860;4.648;2023-08-31T07:14:31;6.75;;;1.15;;
9559;SDS011;4818;50.860;4.648;2023-08-31T07:16:58;3.50;;;0.88;;
9559;SDS011;4818;50.860;4.648;2023-08-31T07:19:24;5.75;;;0.90;;
9559;SDS011;4818;50.860;4.648;2023-08-31T07:21:52;3.53;;;0.70;;
9559;SDS011;4818;50.860;4.648;2023-08-31T07:24:20;6.35;;;1.20;;
9559;SDS011;4818;50.860;4.648;2023-08-31T07:26:46;3.80;;;0.60;;
9559;SDS011;4818;50.860;4.648;2023-08-31T07:29:13;7.82;;;1.50;;
9559;SDS011;4818;50.860;4.648;2023-08-31T07:31:40;5.20;;;1.40;;
9559;SDS011;4818;50.860;4.648;2023-08-31T07:34:06;2.88;;;0.50;;
9559;SDS011;4818;50.860;4.648;2023-08-31T07:36:32;5.55;;;1.20;;
9559;SDS011;4818;50.860;4.648;2023-08-31T07:38:59;3.22;;;0.60;;
9559;SDS011;4818;50.860;4.648;2023-08-31T07:41:25;6.85;;;0.90;;
9559;SDS011;4818;50.860;4.648;2023-08-31T07:43:52;5.93;;;0.80;;
9559;SDS011;4818;50.860;4.648;2023-08-31T07:46:18;5.88;;;1.02;;
9559;SDS011;4818;50.860;4.648;2023-08-31T07:48:44;3.42;;;0.70;;
9559;SDS011;4818;50.860;4.648;2023-08-31T07:51:10;7.22;;;1.20;;
9559;SDS011;4818;50.860;4.648;2023-08-31T07:53:36;7.00;;;1.10;;
9559;SDS011;4818;50.860;4.648;2023-08-31T07:56:02;4.30;;;0.70;;
9559;SDS011;4818;50.860;4.648;2023-08-31T07:58:28;5.57;;;0.63;;
9559;SDS011;4818;50.860;4.648;2023-08-31T08:00:55;4.18;;;0.63;;
9559;SDS011;4818;50.860;4.648;2023-08-31T08:03:22;3.25;;;0.98;;
9559;SDS011;4818;50.860;4.648;2023-08-31T08:05:48;5.18;;;1.17;;
9559;SDS011;4818;50.860;4.648;2023-08-31T08:08:14;5.72;;;0.95;;
9559;SDS011;4818;50.860;4.648;2023-08-31T08:10:40;11.00;;;1.50;;
9559;SDS011;4818;50.860;4.648;2023-08-31T08:13:08;7.72;;;0.90;;
9559;SDS011;4818;50.860;4.648;2023-08-31T08:15:34;6.93;;;1.20;;
9559;SDS011;4818;50.860;4.648;2023-08-31T08:18:00;6.35;;;0.77;;
9559;SDS011;4818;50.860;4.648;2023-08-31T08:20:29;6.53;;;1.13;;
9559;SDS011;4818;50.860;4.648;2023-08-31T08:22:55;4.45;;;0.90;;
9559;SDS011;4818;50.860;4.648;2023-08-31T08:25:23;2.60;;;0.80;;
9559;SDS011;4818;50.860;4.648;2023-08-31T08:27:49;5.28;;;0.93;;
9559;SDS011;4818;50.860;4.648;2023-08-31T08:30:16;3.80;;;0.75;;
9559;SDS011;4818;50.860;4.648;2023-08-31T08:32:43;3.08;;;0.60;;
9559;SDS011;4818;50.860;4.648;2023-08-31T08:35:09;3.58;;;0.80;;
9559;SDS011;4818;50.860;4.648;2023-08-31T08:37:35;7.20;;;1.15;;
9559;SDS011;4818;50.860;4.648;2023-08-31T08:40:02;4.60;;;0.73;;
9559;SDS011;4818;50.860;4.648;2023-08-31T08:42:29;4.97;;;0.93;;
9559;SDS011;4818;50.860;4.648;2023-08-31T08:44:57;4.78;;;0.63;;
9559;SDS011;4818;50.860;4.648;2023-08-31T08:47:24;6.07;;;0.73;;
9559;SDS011;4818;50.860;4.648;2023-08-31T08:49:52;5.90;;;0.50;;
9559;SDS011;4818;50.860;4.648;2023-08-31T08:52:19;3.08;;;0.70;;
9559;SDS011;4818;50.860;4.648;2023-08-31T08:54:46;4.95;;;1.05;;
9559;SDS011;4818;50.860;4.648;2023-08-31T08:57:13;4.97;;;1.05;;
9559;SDS011;4818;50.860;4.648;2023-08-31T08:59:39;3.22;;;0.57;;
9559;SDS011;4818;50.860;4.648;2023-08-31T09:02:05;4.82;;;0.98;;
9559;SDS011;4818;50.860;4.648;2023-08-31T09:04:32;9.10;;;0.90;;
9559;SDS011;4818;50.860;4.648;2023-08-31T09:06:59;2.45;;;0.60;;
9559;SDS011;4818;50.860;4.648;2023-08-31T09:09:25;4.60;;;1.05;;
9559;SDS011;4818;50.860;4.648;2023-08-31T09:11:51;4.80;;;0.70;;
9559;SDS011;4818;50.860;4.648;2023-08-31T09:14:18;3.50;;;0.73;;
9559;SDS011;4818;50.860;4.648;2023-08-31T09:16:45;4.72;;;0.98;;
9559;SDS011;4818;50.860;4.648;2023-08-31T09:19:21;6.50;;;1.20;;
9559;SDS011;4818;50.860;4.648;2023-08-31T09:21:48;3.33;;;0.50;;
9559;SDS011;4818;50.860;4.648;2023-08-31T09:24:14;5.38;;;0.70;;
9559;SDS011;4818;50.860;4.648;2023-08-31T09:26:47;4.57;;;0.77;;
9559;SDS011;4818;50.860;4.648;2023-08-31T09:29:13;6.95;;;0.52;;
9559;SDS011;4818;50.860;4.648;2023-08-31T09:31:43;2.45;;;0.40;;
9559;SDS011;4818;50.860;4.648;2023-08-31T09:34:10;2.70;;;0.63;;
9559;SDS011;4818;50.860;4.648;2023-08-31T09:36:39;8.65;;;0.80;;
9559;SDS011;4818;50.860;4.648;2023-08-31T09:39:05;4.07;;;0.77;;
9559;SDS011;4818;50.860;4.648;2023-08-31T09:41:32;5.60;;;0.60;;
9559;SDS011;4818;50.860;4.648;2023-08-31T09:44:14;5.22;;;0.70;;
9559;SDS011;4818;50.860;4.648;2023-08-31T09:46:41;3.95;;;0.60;;
9559;SDS011;4818;50.860;4.648;2023-08-31T09:49:08;4.22;;;0.68;;
9559;SDS011;4818;50.860;4.648;2023-08-31T09:51:34;3.58;;;0.68;;
9559;SDS011;4818;50.860;4.648;2023-08-31T09:54:01;4.63;;;0.50;;
9559;SDS011;4818;50.860;4.648;2023-08-31T09:56:29;2.63;;;0.40;;
9559;SDS011;4818;50.860;4.648;2023-08-31T09:58:56;3.22;;;0.60;;
9559;SDS011;4818;50.860;4.648;2023-08-31T10:01:22;3.45;;;0.55;;
9559;SDS011;4818;50.860;4.648;2023-08-31T10:03:51;3.80;;;0.60;;
9559;SDS011;4818;50.860;4.648;2023-08-31T10:06:19;4.85;;;0.40;;
9559;SDS011;4818;50.860;4.648;2023-08-31T10:08:47;3.40;;;0.57;;
9559;SDS011;4818;50.860;4.648;2023-08-31T10:11:14;3.38;;;0.90;;
9559;SDS011;4818;50.860;4.648;2023-08-31T10:13:40;2.58;;;0.77;;
9559;SDS011;4818;50.860;4.648;2023-08-31T10:16:07;4.15;;;0.60;;
9559;SDS011;4818;50.860;4.648;2023-08-31T10:18:36;3.45;;;0.80;;
9559;SDS011;4818;50.860;4.648;2023-08-31T10:21:02;2.00;;;0.63;;
9559;SDS011;4818;50.860;4.648;2023-08-31T10:23:29;1.73;;;0.50;;
9559;SDS011;4818;50.860;4.648;2023-08-31T10:28:24;3.15;;;0.50;;
9559;SDS011;4818;50.860;4.648;2023-08-31T10:31:04;1.92;;;0.40;;
9559;SDS011;4818;50.860;4.648;2023-08-31T10:35:56;3.00;;;0.40;;
9559;SDS011;4818;50.860;4.648;2023-08-31T10:38:23;4.05;;;0.65;;
9559;SDS011;4818;50.860;4.648;2023-08-31T10:51:29;2.92;;;0.50;;
9559;SDS011;4818;50.860;4.648;2023-08-31T11:02:09;3.13;;;0.82;;
9559;SDS011;4818;50.860;4.648;2023-08-31T11:07:24;3.00;;;0.43;;
9559;SDS011;4818;50.860;4.648;2023-08-31T11:09:50;2.15;;;0.50;;
9559;SDS011;4818;50.860;4.648;2023-08-31T11:12:16;8.27;;;0.70;;
9559;SDS011;4818;50.860;4.648;2023-08-31T11:14:42;5.78;;;0.55;;
9559;SDS011;4818;50.860;4.648;2023-08-31T11:17:09;2.70;;;0.50;;
9559;SDS011;4818;50.860;4.648;2023-08-31T11:19:35;5.53;;;0.50;;
9559;SDS011;4818;50.860;4.648;2023-08-31T11:22:02;2.75;;;0.60;;
9559;SDS011;4818;50.860;4.648;2023-08-31T11:24:29;8.02;;;0.55;;
9559;SDS011;4818;50.860;4.648;2023-08-31T11:26:55;5.47;;;0.63;;
9559;SDS011;4818;50.860;4.648;2023-08-31T11:29:21;1.92;;;0.30;;
9559;SDS011;4818;50.860;4.648;2023-08-31T11:31:48;6.25;;;0.60;;
9559;SDS011;4818;50.860;4.648;2023-08-31T11:34:14;2.35;;;0.50;;
9559;SDS011;4818;50.860;4.648;2023-08-31T11:36:44;5.03;;;0.68;;
9559;SDS011;4818;50.860;4.648;2023-08-31T11:39:12;2.85;;;0.43;;
9559;SDS011;4818;50.860;4.648;2023-08-31T11:41:38;3.03;;;0.57;;
9559;SDS011;4818;50.860;4.648;2023-08-31T11:44:07;2.13;;;0.50;;
9559;SDS011;4818;50.860;4.648;2023-08-31T11:46:35;3.63;;;0.43;;
9559;SDS011;4818;50.860;4.648;2023-08-31T11:49:01;2.22;;;0.40;;
9559;SDS011;4818;50.860;4.648;2023-08-31T11:51:29;3.38;;;0.60;;
9559;SDS011;4818;50.860;4.648;2023-08-31T11:53:56;2.85;;;0.40;;
9559;SDS011;4818;50.860;4.648;2023-08-31T11:56:24;3.47;;;0.50;;
9559;SDS011;4818;50.860;4.648;2023-08-31T11:58:51;4.22;;;0.40;;
9559;SDS011;4818;50.860;4.648;2023-08-31T12:01:17;2.88;;;0.50;;
9559;SDS011;4818;50.860;4.648;2023-08-31T12:03:44;3.40;;;0.55;;
9559;SDS011;4818;50.860;4.648;2023-08-31T12:06:10;3.60;;;0.40;;
9559;SDS011;4818;50.860;4.648;2023-08-31T12:08:36;4.43;;;0.50;;
9559;SDS011;4818;50.860;4.648;2023-08-31T12:11:06;2.72;;;0.70;;
9559;SDS011;4818;50.860;4.648;2023-08-31T12:13:32;5.50;;;0.43;;
9559;SDS011;4818;50.860;4.648;2023-08-31T12:15:58;4.07;;;0.70;;
9559;SDS011;4818;50.860;4.648;2023-08-31T12:18:29;3.40;;;0.40;;
9559;SDS011;4818;50.860;4.648;2023-08-31T12:20:56;5.65;;;0.80;;
9559;SDS011;4818;50.860;4.648;2023-08-31T12:23:23;3.65;;;0.68;;
9559;SDS011;4818;50.860;4.648;2023-08-31T12:25:51;5.38;;;0.50;;
9559;SDS011;4818;50.860;4.648;2023-08-31T12:28:18;7.82;;;0.50;;
9559;SDS011;4818;50.860;4.648;2023-08-31T12:30:49;3.90;;;0.60;;
9559;SDS011;4818;50.860;4.648;2023-08-31T12:33:16;4.38;;;0.40;;
9559;SDS011;4818;50.860;4.648;2023-08-31T12:35:42;3.58;;;0.50;;
9559;SDS011;4818;50.860;4.648;2023-08-31T12:38:09;3.75;;;0.47;;
9559;SDS011;4818;50.860;4.648;2023-08-31T12:40:35;2.70;;;0.55;;
9559;SDS011;4818;50.860;4.648;2023-08-31T12:43:03;1.75;;;0.50;;
9559;SDS011;4818;50.860;4.648;2023-08-31T12:45:30;2.95;;;0.55;;
9559;SDS011;4818;50.860;4.648;2023-08-31T12:47:56;3.42;;;0.50;;
9559;SDS011;4818;50.860;4.648;2023-08-31T12:50:22;5.07;;;0.50;;
9559;SDS011;4818;50.860;4.648;2023-08-31T12:52:48;4.75;;;0.47;;
9559;SDS011;4818;50.860;4.648;2023-08-31T12:55:15;4.50;;;0.80;;
9559;SDS011;4818;50.860;4.648;2023-08-31T12:57:41;3.00;;;0.45;;
9559;SDS011;4818;50.860;4.648;2023-08-31T13:00:08;3.58;;;0.70;;
9559;SDS011;4818;50.860;4.648;2023-08-31T13:02:37;4.90;;;0.50;;
9559;SDS011;4818;50.860;4.648;2023-08-31T13:05:04;2.58;;;0.40;;
9559;SDS011;4818;50.860;4.648;2023-08-31T13:07:31;2.50;;;0.50;;
9559;SDS011;4818;50.860;4.648;2023-08-31T13:09:59;3.28;;;0.30;;
9559;SDS011;4818;50.860;4.648;2023-08-31T13:12:25;2.33;;;0.40;;
9559;SDS011;4818;50.860;4.648;2023-08-31T13:14:51;4.10;;;0.47;;
9559;SDS011;4818;50.860;4.648;2023-08-31T13:17:17;1.98;;;0.55;;
9559;SDS011;4818;50.860;4.648;2023-08-31T13:19:43;4.45;;;0.40;;
9559;SDS011;4818;50.860;4.648;2023-08-31T13:22:09;3.30;;;0.30;;
9559;SDS011;4818;50.860;4.648;2023-08-31T13:24:40;1.73;;;0.40;;
9559;SDS011;4818;50.860;4.648;2023-08-31T13:27:06;3.40;;;0.50;;
9559;SDS011;4818;50.860;4.648;2023-08-31T13:29:32;2.40;;;0.35;;
9559;SDS011;4818;50.860;4.648;2023-08-31T13:31:58;3.00;;;0.30;;
9559;SDS011;4818;50.860;4.648;2023-08-31T13:34:24;4.32;;;0.30;;
9559;SDS011;4818;50.860;4.648;2023-08-31T13:36:50;2.78;;;0.38;;
9559;SDS011;4818;50.860;4.648;2023-08-31T13:39:17;2.42;;;0.30;;
9559;SDS011;4818;50.860;4.648;2023-08-31T13:41:43;2.53;;;0.40;;
9559;SDS011;4818;50.860;4.648;2023-08-31T13:44:11;2.10;;;0.40;;
9559;SDS011;4818;50.860;4.648;2023-08-31T13:46:37;4.30;;;0.60;;
9559;SDS011;4818;50.860;4.648;2023-08-31T13:49:03;4.40;;;0.75;;
9559;SDS011;4818;50.860;4.648;2023-08-31T13:51:29;4.13;;;0.40;;
9559;SDS011;4818;50.860;4.648;2023-08-31T13:53:55;4.63;;;0.30;;
9559;SDS011;4818;50.860;4.648;2023-08-31T13:56:21;4.35;;;0.30;;
9559;SDS011;4818;50.860;4.648;2023-08-31T13:58:48;1.38;;;0.30;;
9559;SDS011;4818;50.860;4.648;2023-08-31T14:01:14;4.20;;;0.30;;
9559;SDS011;4818;50.860;4.648;2023-08-31T14:03:41;2.45;;;0.40;;
9559;SDS011;4818;50.860;4.648;2023-08-31T14:06:08;4.03;;;0.38;;
9559;SDS011;4818;50.860;4.648;2023-08-31T14:08:34;7.70;;;0.55;;
9559;SDS011;4818;50.860;4.648;2023-08-31T14:11:00;2.55;;;0.30;;
9559;SDS011;4818;50.860;4.648;2023-08-31T14:13:26;5.03;;;0.50;;
9559;SDS011;4818;50.860;4.648;2023-08-31T14:15:53;3.30;;;0.55;;
9559;SDS011;4818;50.860;4.648;2023-08-31T14:18:19;2.90;;;0.40;;
9559;SDS011;4818;50.860;4.648;2023-08-31T14:20:46;5.45;;;0.60;;
9559;SDS011;4818;50.860;4.648;2023-08-31T14:23:13;3.85;;;1.00;;
9559;SDS011;4818;50.860;4.648;2023-08-31T14:25:39;3.97;;;0.68;;
9559;SDS011;4818;50.860;4.648;2023-08-31T14:28:05;2.58;;;0.47;;
9559;SDS011;4818;50.860;4.648;2023-08-31T14:30:32;9.38;;;0.57;;
9559;SDS011;4818;50.860;4.648;2023-08-31T14:32:58;5.95;;;1.02;;
9559;SDS011;4818;50.860;4.648;2023-08-31T14:35:37;2.33;;;0.98;;
9559;SDS011;4818;50.860;4.648;2023-08-31T14:38:04;8.85;;;0.93;;
9559;SDS011;4818;50.860;4.648;2023-08-31T14:40:30;3.33;;;0.50;;
9559;SDS011;4818;50.860;4.648;2023-08-31T14:42:59;5.13;;;0.65;;
9559;SDS011;4818;50.860;4.648;2023-08-31T14:45:26;6.78;;;0.60;;
9559;SDS011;4818;50.860;4.648;2023-08-31T14:47:52;4.95;;;1.10;;
9559;SDS011;4818;50.860;4.648;2023-08-31T14:50:18;8.05;;;1.40;;
9559;SDS011;4818;50.860;4.648;2023-08-31T14:52:49;4.18;;;0.70;;
9559;SDS011;4818;50.860;4.648;2023-08-31T14:55:15;3.50;;;0.63;;
9559;SDS011;4818;50.860;4.648;2023-08-31T14:57:41;3.20;;;1.00;;
9559;SDS011;4818;50.860;4.648;2023-08-31T15:00:08;8.35;;;1.13;;
9559;SDS011;4818;50.860;4.648;2023-08-31T15:02:34;6.25;;;0.70;;
9559;SDS011;4818;50.860;4.648;2023-08-31T15:05:01;3.70;;;0.88;;
9559;SDS011;4818;50.860;4.648;2023-08-31T15:07:28;11.15;;;0.75;;
9559;SDS011;4818;50.860;4.648;2023-08-31T15:09:55;6.22;;;1.35;;
9559;SDS011;4818;50.860;4.648;2023-08-31T15:12:21;5.13;;;0.65;;
9559;SDS011;4818;50.860;4.648;2023-08-31T15:14:47;7.07;;;0.90;;
9559;SDS011;4818;50.860;4.648;2023-08-31T15:17:13;8.38;;;1.02;;
9559;SDS011;4818;50.860;4.648;2023-08-31T15:19:40;4.30;;;0.63;;
9559;SDS011;4818;50.860;4.648;2023-08-31T15:22:06;3.83;;;0.60;;
9559;SDS011;4818;50.860;4.648;2023-08-31T15:24:32;4.50;;;0.70;;
9559;SDS011;4818;50.860;4.648;2023-08-31T15:26:58;4.65;;;0.70;;
9559;SDS011;4818;50.860;4.648;2023-08-31T15:29:25;2.53;;;0.75;;
9559;SDS011;4818;50.860;4.648;2023-08-31T15:31:53;5.53;;;0.73;;
9559;SDS011;4818;50.860;4.648;2023-08-31T15:34:19;5.38;;;0.70;;
9559;SDS011;4818;50.860;4.648;2023-08-31T15:36:45;1.98;;;0.70;;
9559;SDS011;4818;50.860;4.648;2023-08-31T15:39:11;5.55;;;0.82;;
9559;SDS011;4818;50.860;4.648;2023-08-31T15:41:39;6.40;;;0.95;;
9559;SDS011;4818;50.860;4.648;2023-08-31T15:44:05;5.78;;;0.98;;
9559;SDS011;4818;50.860;4.648;2023-08-31T15:46:31;6.72;;;1.10;;
9559;SDS011;4818;50.860;4.648;2023-08-31T15:48:57;3.30;;;0.77;;